createdAt,value
2023-05-25T00:02:05.414Z,22.30
2023-05-25T00:04:35.437Z,22.30
2023-05-25T00:07:04.670Z,22.30
2023-05-25T00:09:33.042Z,22.30
2023-05-25T00:12:01.700Z,22.30
2023-05-25T00:14:31.745Z,22.30
2023-05-25T00:17:04.796Z,22.30
2023-05-25T00:19:33.270Z,22.30
2023-05-25T00:22:04.387Z,22.20
2023-05-25T00:24:33.071Z,22.20
2023-05-25T00:27:01.504Z,22.20
2023-05-25T00:29:30.277Z,22.20
2023-05-25T00:31:58.654Z,22.20
2023-05-25T00:34:27.052Z,22.10
2023-05-25T00:36:56.019Z,22.10
2023-05-25T00:39:24.778Z,22.00
2023-05-25T00:41:53.095Z,22.00
2023-05-25T00:44:22.369Z,22.10
2023-05-25T00:46:53.090Z,22.10
2023-05-25T00:49:25.662Z,22.00
2023-05-25T00:51:54.460Z,22.00
2023-05-25T00:54:23.302Z,22.00
2023-05-25T00:56:56.925Z,21.90
2023-05-25T00:59:42.043Z,21.90
2023-05-25T01:02:14.296Z,21.80
2023-05-25T01:04:47.927Z,21.80
2023-05-25T01:07:31.887Z,21.80
2023-05-25T01:10:03.188Z,21.70
2023-05-25T01:12:33.237Z,21.70
2023-05-25T01:15:02.975Z,21.70
2023-05-25T01:17:31.552Z,21.70
2023-05-25T01:20:09.757Z,21.70
2023-05-25T01:23:05.587Z,21.60
2023-05-25T01:25:44.904Z,21.60
2023-05-25T01:28:41.083Z,21.60
2023-05-25T01:31:10.426Z,21.60
2023-05-25T01:33:40.460Z,21.50
2023-05-25T01:36:08.988Z,21.50
2023-05-25T01:38:39.800Z,21.50
2023-05-25T01:41:08.182Z,21.50
2023-05-25T01:43:36.604Z,21.50
2023-05-25T01:46:25.709Z,21.50
2023-05-25T01:49:09.505Z,21.40
2023-05-25T01:51:48.646Z,21.40
2023-05-25T01:54:21.066Z,21.40
2023-05-25T01:56:52.836Z,21.30
2023-05-25T01:59:22.954Z,21.30
2023-05-25T02:01:53.584Z,21.30
2023-05-25T02:04:23.535Z,21.20
2023-05-25T02:06:53.547Z,21.20
2023-05-25T02:09:22.022Z,21.10
2023-05-25T02:11:50.844Z,21.10
2023-05-25T02:14:19.505Z,21.00
2023-05-25T02:16:47.926Z,21.00
2023-05-25T02:19:16.798Z,20.90
2023-05-25T02:21:45.333Z,20.90
2023-05-25T02:24:13.801Z,20.80
2023-05-25T02:26:42.261Z,20.80
2023-05-25T02:29:10.723Z,20.70
2023-05-25T02:31:39.202Z,20.60
2023-05-25T02:34:07.594Z,20.60
2023-05-25T02:36:37.114Z,20.60
2023-05-25T02:39:05.799Z,20.50
2023-05-25T02:41:34.128Z,20.50
2023-05-25T02:44:02.480Z,20.40
2023-05-25T02:46:31.241Z,20.40
2023-05-25T02:49:00.768Z,20.30
2023-05-25T02:51:30.244Z,20.30
2023-05-25T02:53:58.611Z,20.20
2023-05-25T02:56:28.394Z,20.20
2023-05-25T02:58:56.865Z,20.10
2023-05-25T03:01:26.214Z,20.10
2023-05-25T03:03:54.727Z,20.00
2023-05-25T03:06:23.799Z,19.90
2023-05-25T03:08:52.170Z,19.80
2023-05-25T03:11:20.522Z,19.80
2023-05-25T03:13:48.874Z,19.70
2023-05-25T03:16:17.274Z,19.60
2023-05-25T03:18:45.671Z,19.60
2023-05-25T03:21:14.093Z,19.50
2023-05-25T03:23:42.416Z,19.40
2023-05-25T03:26:10.797Z,19.40
2023-05-25T03:28:39.137Z,19.30
2023-05-25T03:31:07.485Z,19.30
2023-05-25T03:33:35.937Z,19.20
2023-05-25T03:36:08.627Z,19.10
2023-05-25T03:38:40.086Z,19.10
2023-05-25T03:41:08.425Z,19.00
2023-05-25T03:43:36.784Z,19.00
2023-05-25T03:46:05.184Z,18.90
2023-05-25T03:48:33.557Z,18.90
2023-05-25T03:51:01.882Z,18.80
2023-05-25T03:53:30.377Z,18.80
2023-05-25T03:55:58.976Z,18.70
2023-05-25T03:58:27.337Z,18.60
2023-05-25T04:00:56.992Z,18.50
2023-05-25T04:03:25.674Z,18.50
2023-05-25T04:05:54.311Z,18.40
2023-05-25T04:08:23.206Z,18.40
2023-05-25T04:10:51.735Z,18.30
2023-05-25T04:13:20.138Z,18.20
2023-05-25T04:15:48.855Z,18.10
2023-05-25T04:18:17.306Z,18.10
2023-05-25T04:20:47.979Z,18.10
2023-05-25T04:23:16.449Z,18.00
2023-05-25T04:25:46.233Z,17.90
2023-05-25T04:28:14.809Z,17.90
2023-05-25T04:30:43.251Z,17.80
2023-05-25T04:33:14.774Z,17.70
2023-05-25T04:35:43.257Z,17.70
2023-05-25T04:38:13.253Z,17.60
2023-05-25T04:40:42.641Z,17.60
2023-05-25T04:43:12.217Z,17.60
2023-05-25T04:45:40.845Z,17.50
2023-05-25T04:48:10.265Z,17.50
2023-05-25T04:50:40.969Z,17.40
2023-05-25T04:53:09.453Z,17.40
2023-05-25T04:55:37.867Z,17.40
2023-05-25T04:58:06.568Z,17.30
2023-05-25T05:00:35.252Z,17.30
2023-05-25T05:03:03.743Z,17.30
2023-05-25T05:05:32.234Z,17.20
2023-05-25T05:08:00.661Z,17.20
2023-05-25T05:10:29.017Z,17.10
2023-05-25T05:12:57.478Z,17.00
2023-05-25T05:15:25.924Z,17.00
2023-05-25T05:17:55.704Z,16.90
2023-05-25T05:20:24.178Z,16.90
2023-05-25T05:22:54.192Z,16.90
2023-05-25T05:25:22.558Z,16.80
2023-05-25T05:27:50.904Z,16.80
2023-05-25T05:30:19.482Z,16.70
2023-05-25T05:32:47.838Z,16.70
2023-05-25T05:35:16.346Z,16.60
2023-05-25T05:37:45.162Z,16.50
2023-05-25T05:40:13.714Z,16.50
2023-05-25T05:42:43.203Z,16.50
2023-05-25T05:45:12.021Z,16.40
2023-05-25T05:47:40.424Z,16.40
2023-05-25T05:50:09.305Z,16.30
2023-05-25T05:52:37.684Z,16.30
2023-05-25T05:55:07.134Z,16.30
2023-05-25T05:57:35.549Z,16.30
2023-05-25T06:00:07.436Z,16.20
2023-05-25T06:02:35.945Z,16.20
2023-05-25T06:05:04.747Z,16.20
2023-05-25T06:07:35.944Z,16.10
2023-05-25T06:10:04.464Z,16.10
2023-05-25T06:12:32.801Z,16.00
2023-05-25T06:15:01.915Z,16.00
2023-05-25T06:17:30.874Z,15.90
2023-05-25T06:19:59.264Z,16.00
2023-05-25T06:22:29.660Z,15.90
2023-05-25T06:24:58.238Z,15.90
2023-05-25T06:27:26.593Z,15.90
2023-05-25T06:29:55.016Z,15.80
2023-05-25T06:32:23.411Z,15.80
2023-05-25T06:34:51.758Z,15.80
2023-05-25T06:37:20.155Z,15.80
2023-05-25T06:39:48.720Z,15.70
2023-05-25T06:42:17.143Z,15.70
2023-05-25T06:44:45.544Z,15.60
2023-05-25T06:47:14.091Z,15.60
2023-05-25T06:49:42.425Z,15.60
2023-05-25T06:52:10.757Z,15.50
2023-05-25T06:54:39.173Z,15.50
2023-05-25T06:57:07.809Z,15.50
2023-05-25T06:59:36.259Z,15.50
2023-05-25T07:02:04.659Z,15.40
2023-05-25T07:04:33.862Z,15.30
2023-05-25T07:07:02.423Z,15.30
2023-05-25T07:09:31.075Z,15.30
2023-05-25T07:11:59.698Z,15.30
2023-05-25T07:14:28.136Z,15.30
2023-05-25T07:16:56.604Z,15.20
2023-05-25T07:19:24.995Z,15.20
2023-05-25T07:21:53.557Z,15.10
2023-05-25T07:24:22.028Z,15.10
2023-05-25T07:26:50.582Z,15.00
2023-05-25T07:29:19.048Z,15.00
2023-05-25T07:31:47.665Z,14.90
2023-05-25T07:34:16.431Z,14.90
2023-05-25T07:36:44.795Z,14.80
2023-05-25T07:39:13.154Z,14.80
2023-05-25T07:41:41.537Z,14.70
2023-05-25T07:44:09.971Z,14.70
2023-05-25T07:46:38.389Z,14.70
2023-05-25T07:49:09.052Z,14.70
2023-05-25T07:51:38.406Z,14.60
2023-05-25T07:54:06.803Z,14.50
2023-05-25T07:56:35.197Z,14.50
2023-05-25T07:59:03.655Z,14.50
2023-05-25T08:01:32.115Z,14.50
2023-05-25T08:04:00.772Z,14.40
2023-05-25T08:06:29.185Z,14.40
2023-05-25T08:08:57.610Z,14.40
2023-05-25T08:11:27.571Z,14.40
2023-05-25T08:13:55.941Z,14.30
2023-05-25T08:16:24.478Z,14.30
2023-05-25T08:18:53.283Z,14.20
2023-05-25T08:21:21.839Z,14.10
2023-05-25T08:23:51.438Z,14.00
2023-05-25T08:26:37.884Z,13.90
2023-05-25T08:29:08.263Z,13.90
2023-05-25T08:31:38.046Z,13.80
2023-05-25T08:34:06.526Z,13.70
2023-05-25T08:36:36.629Z,13.60
2023-05-25T08:39:05.656Z,13.50
2023-05-25T08:41:37.848Z,13.50
2023-05-25T08:44:08.976Z,13.40
2023-05-25T08:46:37.799Z,13.30
2023-05-25T08:49:11.589Z,13.20
2023-05-25T08:51:51.573Z,13.10
2023-05-25T08:54:55.309Z,13.10
2023-05-25T08:57:32.961Z,12.90
2023-05-25T09:00:12.263Z,12.80
2023-05-25T09:02:46.287Z,12.80
2023-05-25T09:05:15.565Z,12.70
2023-05-25T09:07:45.492Z,12.70
2023-05-25T09:10:15.334Z,12.60
2023-05-25T09:12:44.628Z,12.50
2023-05-25T09:15:13.603Z,12.50
2023-05-25T09:17:42.208Z,12.40
2023-05-25T09:20:14.526Z,12.40
2023-05-25T09:22:43.401Z,12.40
2023-05-25T09:25:12.980Z,12.30
2023-05-25T09:27:42.145Z,12.20
2023-05-25T09:30:10.866Z,12.20
2023-05-25T09:32:40.400Z,12.10
2023-05-25T09:35:13.473Z,12.10
2023-05-25T09:37:45.564Z,12.00
2023-05-25T09:40:15.410Z,12.00
2023-05-25T09:42:45.232Z,11.90
2023-05-25T09:45:13.664Z,11.90
2023-05-25T09:47:42.244Z,11.80
2023-05-25T09:50:12.203Z,11.80
2023-05-25T09:52:40.600Z,11.80
2023-05-25T09:55:11.633Z,11.70
2023-05-25T09:57:40.708Z,11.70
2023-05-25T10:00:10.914Z,11.70
2023-05-25T10:02:39.745Z,11.60
2023-05-25T10:05:08.568Z,11.60
2023-05-25T10:07:39.693Z,11.60
2023-05-25T10:10:09.461Z,11.60
2023-05-25T10:12:40.428Z,11.50
2023-05-25T10:15:10.531Z,11.50
2023-05-25T10:17:44.454Z,11.50
2023-05-25T10:20:15.256Z,11.40
2023-05-25T10:22:55.059Z,11.40
2023-05-25T10:25:40.756Z,11.30
2023-05-25T10:28:35.025Z,11.30
2023-05-25T10:31:04.956Z,11.30
2023-05-25T10:33:34.983Z,11.20
2023-05-25T10:38:36.812Z,11.20
2023-05-25T10:41:06.748Z,11.30
2023-05-25T10:43:35.243Z,11.30
2023-05-25T10:46:05.532Z,11.30
2023-05-25T10:48:39.231Z,11.30
2023-05-25T10:51:10.131Z,11.30
2023-05-25T10:53:40.361Z,11.30
2023-05-25T10:56:11.418Z,11.30
2023-05-25T10:58:47.212Z,11.20
2023-05-25T11:01:17.075Z,11.20
2023-05-25T11:03:49.192Z,11.20
2023-05-25T11:06:19.286Z,11.10
2023-05-25T11:08:57.636Z,11.10
2023-05-25T11:11:48.418Z,11.10
2023-05-25T11:14:30.508Z,11.10
2023-05-25T11:17:16.523Z,11.00
2023-05-25T11:19:48.750Z,11.00
2023-05-25T11:22:23.241Z,10.90
2023-05-25T11:24:54.911Z,10.90
2023-05-25T11:27:28.965Z,10.90
2023-05-25T11:29:59.068Z,10.90
2023-05-25T11:32:28.481Z,10.80
2023-05-25T11:34:58.939Z,10.80
2023-05-25T11:37:32.204Z,10.70
2023-05-25T11:40:00.675Z,10.70
2023-05-25T11:42:30.189Z,10.70
2023-05-25T11:45:03.646Z,10.60
2023-05-25T11:47:33.545Z,10.60
2023-05-25T11:50:02.992Z,10.60
2023-05-25T11:52:31.737Z,10.50
2023-05-25T11:55:00.236Z,10.50
2023-05-25T11:57:28.661Z,10.50
2023-05-25T12:00:01.037Z,10.50
2023-05-25T12:02:38.103Z,10.40
2023-05-25T12:05:09.494Z,10.40
2023-05-25T12:07:45.572Z,10.40
2023-05-25T12:10:19.082Z,10.40
2023-05-25T12:12:58.896Z,10.40
2023-05-25T12:15:27.857Z,10.30
2023-05-25T12:17:56.339Z,10.30
2023-05-25T12:20:24.895Z,10.30
2023-05-25T12:22:53.607Z,10.30
2023-05-25T12:25:23.469Z,10.20
2023-05-25T12:28:14.442Z,10.20
2023-05-25T12:30:42.975Z,10.20
2023-05-25T12:33:15.676Z,10.20
2023-05-25T12:35:50.857Z,10.20
2023-05-25T12:38:20.888Z,10.10
2023-05-25T12:41:05.365Z,10.10
2023-05-25T12:43:41.376Z,10.10
2023-05-25T12:46:09.983Z,10.10
2023-05-25T12:48:38.477Z,10.10
2023-05-25T12:51:06.838Z,10.10
2023-05-25T12:53:48.575Z,10.10
2023-05-25T12:56:17.072Z,10.10
2023-05-25T12:58:46.593Z,10.00
2023-05-25T13:01:14.915Z,10.10
2023-05-25T13:03:43.295Z,10.10
2023-05-25T13:06:11.644Z,10.10
2023-05-25T13:08:40.046Z,10.10
2023-05-25T13:11:08.470Z,10.10
2023-05-25T13:13:36.883Z,10.10
2023-05-25T13:16:05.486Z,10.20
2023-05-25T13:18:33.992Z,10.20
2023-05-25T13:21:02.488Z,10.20
2023-05-25T13:23:31.056Z,10.20
2023-05-25T13:25:59.507Z,10.20
2023-05-25T13:28:27.843Z,10.30
2023-05-25T13:30:56.216Z,10.30
2023-05-25T13:33:24.680Z,10.30
2023-05-25T13:35:59.368Z,10.40
2023-05-25T13:38:28.336Z,10.40
2023-05-25T13:40:57.524Z,10.50
2023-05-25T13:43:26.081Z,10.50
2023-05-25T13:45:55.030Z,10.60
2023-05-25T13:48:23.834Z,10.60
2023-05-25T13:50:52.257Z,10.70
2023-05-25T13:53:20.611Z,10.80
2023-05-25T13:55:49.523Z,10.90
2023-05-25T13:58:17.986Z,11.00
2023-05-25T14:00:46.421Z,11.10
2023-05-25T14:03:15.130Z,11.20
2023-05-25T14:05:43.861Z,11.30
2023-05-25T14:08:13.528Z,11.40
2023-05-25T14:10:44.132Z,11.50
2023-05-25T14:13:12.708Z,11.60
2023-05-25T14:15:41.140Z,11.70
2023-05-25T14:18:09.540Z,11.80
2023-05-25T14:20:40.950Z,11.90
2023-05-25T14:23:10.917Z,12.00
2023-05-25T14:25:41.914Z,12.20
2023-05-25T14:28:10.547Z,12.30
2023-05-25T14:30:38.897Z,12.50
2023-05-25T14:33:07.349Z,12.60
2023-05-25T14:35:35.788Z,12.70
2023-05-25T14:38:04.161Z,12.80
2023-05-25T14:40:32.580Z,12.90
2023-05-25T14:43:00.951Z,13.10
2023-05-25T14:45:29.297Z,13.20
2023-05-25T14:48:11.676Z,13.30
2023-05-25T14:50:45.171Z,13.50
2023-05-25T14:53:13.607Z,13.60
2023-05-25T14:55:42.319Z,13.60
2023-05-25T14:58:11.399Z,13.70
2023-05-25T15:00:39.835Z,13.80
2023-05-25T15:03:08.335Z,13.80
2023-05-25T15:05:36.741Z,13.90
2023-05-25T15:08:05.201Z,14.00
2023-05-25T15:10:33.534Z,14.10
2023-05-25T15:13:01.916Z,14.10
2023-05-25T15:15:30.396Z,14.20
2023-05-25T15:17:58.904Z,14.30
2023-05-25T15:20:27.337Z,14.40
2023-05-25T15:22:55.816Z,14.50
2023-05-25T15:25:35.146Z,14.50
2023-05-25T15:28:13.132Z,14.50
2023-05-25T15:30:41.575Z,14.60
2023-05-25T15:33:10.449Z,14.70
2023-05-25T15:35:38.849Z,14.80
2023-05-25T15:38:07.218Z,14.80
2023-05-25T15:40:37.793Z,14.90
2023-05-25T15:43:06.388Z,14.90
2023-05-25T15:45:34.819Z,14.90
2023-05-25T15:48:04.736Z,15.00
2023-05-25T15:50:33.108Z,15.00
2023-05-25T15:53:01.468Z,15.10
2023-05-25T15:55:29.990Z,15.20
2023-05-25T15:57:58.343Z,15.20
2023-05-25T16:00:27.772Z,15.30
2023-05-25T16:02:56.821Z,15.40
2023-05-25T16:05:25.216Z,15.40
2023-05-25T16:07:53.699Z,15.50
2023-05-25T16:10:22.155Z,15.50
2023-05-25T16:12:50.491Z,15.60
2023-05-25T16:15:18.947Z,15.70
2023-05-25T16:17:47.298Z,15.70
2023-05-25T16:20:17.890Z,15.80
2023-05-25T16:22:46.759Z,15.90
2023-05-25T16:25:15.172Z,15.90
2023-05-25T16:27:43.596Z,16.00
2023-05-25T16:30:13.548Z,16.10
2023-05-25T16:32:42.119Z,16.20
2023-05-25T16:35:10.657Z,16.30
2023-05-25T16:37:39.030Z,16.40
2023-05-25T16:40:08.322Z,16.40
2023-05-25T16:42:36.729Z,16.50
2023-05-25T16:45:05.360Z,16.50
2023-05-25T16:47:34.119Z,16.70
2023-05-25T16:50:02.569Z,16.70
2023-05-25T16:52:30.936Z,16.70
2023-05-25T16:54:59.973Z,16.70
2023-05-25T16:57:28.660Z,16.80
2023-05-25T16:59:56.989Z,16.90
2023-05-25T17:02:25.419Z,17.00
2023-05-25T17:04:53.845Z,17.10
2023-05-25T17:07:22.234Z,17.10
2023-05-25T17:09:50.620Z,17.10
2023-05-25T17:12:18.994Z,17.10
2023-05-25T17:14:47.329Z,17.20
2023-05-25T17:17:15.767Z,17.30
2023-05-25T17:19:44.158Z,17.40
2023-05-25T17:22:12.602Z,17.50
2023-05-25T17:24:41.092Z,17.60
2023-05-25T17:27:09.615Z,17.60
2023-05-25T17:29:38.607Z,17.70
2023-05-25T17:32:07.300Z,17.80
2023-05-25T17:34:35.762Z,17.90
2023-05-25T17:37:04.698Z,18.00
2023-05-25T17:39:33.047Z,18.10
2023-05-25T17:42:02.272Z,18.20
2023-05-25T17:44:30.790Z,18.40
2023-05-25T17:46:59.335Z,18.40
2023-05-25T17:49:27.711Z,18.50
2023-05-25T17:51:56.120Z,18.60
2023-05-25T17:54:26.400Z,18.70
2023-05-25T17:56:55.262Z,18.80
2023-05-25T17:59:23.874Z,18.90
2023-05-25T18:01:52.810Z,19.00
2023-05-25T18:04:21.488Z,19.10
2023-05-25T18:06:53.146Z,19.20
2023-05-25T18:09:21.767Z,19.30
2023-05-25T18:11:50.801Z,19.40
2023-05-25T18:14:20.243Z,19.60
2023-05-25T18:16:48.682Z,19.60
2023-05-25T18:19:19.098Z,19.70
2023-05-25T18:21:47.700Z,19.80
2023-05-25T18:24:16.153Z,19.90
2023-05-25T18:26:44.783Z,20.00
2023-05-25T18:29:13.475Z,20.10
2023-05-25T18:31:46.378Z,20.10
2023-05-25T18:34:15.524Z,20.20
2023-05-25T18:36:43.899Z,20.20
2023-05-25T18:39:12.321Z,20.30
2023-05-25T18:41:40.791Z,20.40
2023-05-25T18:44:09.888Z,20.40
2023-05-25T18:46:40.849Z,20.40
2023-05-25T18:49:09.578Z,20.60
2023-05-25T18:51:38.338Z,20.70
2023-05-25T18:54:06.842Z,20.70
2023-05-25T18:56:35.222Z,20.80
2023-05-25T18:59:03.680Z,20.80
2023-05-25T19:01:32.091Z,20.90
2023-05-25T19:04:00.500Z,21.00
2023-05-25T19:06:28.960Z,21.10
2023-05-25T19:08:57.506Z,21.10
2023-05-25T19:11:25.925Z,21.20
2023-05-25T19:13:54.256Z,21.20
2023-05-25T19:16:22.888Z,21.30
2023-05-25T19:18:51.243Z,21.40
2023-05-25T19:21:19.668Z,21.50
2023-05-25T19:23:48.074Z,21.60
2023-05-25T19:26:16.804Z,21.70
2023-05-25T19:28:45.178Z,21.70
2023-05-25T19:31:13.740Z,21.80
2023-05-25T19:33:42.253Z,21.90
2023-05-25T19:36:10.666Z,22.00
2023-05-25T19:38:41.697Z,22.10
2023-05-25T19:41:10.733Z,22.30
2023-05-25T19:43:39.120Z,22.40
2023-05-25T19:46:07.634Z,22.50
2023-05-25T19:48:36.149Z,22.60
2023-05-25T19:51:04.658Z,22.70
2023-05-25T19:53:33.191Z,22.70
2023-05-25T19:56:01.613Z,22.80
2023-05-25T19:58:30.091Z,22.90
2023-05-25T20:00:58.860Z,22.90
2023-05-25T20:03:27.370Z,23.10
2023-05-25T20:05:57.048Z,23.20
2023-05-25T20:08:27.348Z,23.40
2023-05-25T20:10:56.396Z,23.50
2023-05-25T20:13:24.888Z,23.60
2023-05-25T20:15:53.276Z,23.80
2023-05-25T20:18:22.036Z,24.00
2023-05-25T20:20:53.259Z,24.30
2023-05-25T20:23:21.772Z,24.30
2023-05-25T20:25:50.112Z,24.50
2023-05-25T20:28:19.407Z,24.60
2023-05-25T20:30:47.888Z,24.90
2023-05-25T20:33:16.371Z,25.00
2023-05-25T20:35:44.985Z,25.10
2023-05-25T20:38:13.469Z,25.30
2023-05-25T20:40:41.971Z,25.60
2023-05-25T20:43:10.297Z,25.70
2023-05-25T20:45:39.400Z,26.00
2023-05-25T20:48:07.976Z,26.30
2023-05-25T20:50:36.714Z,26.70
2023-05-25T20:53:05.180Z,27.00
2023-05-25T20:55:33.577Z,27.50
2023-05-25T20:58:02.149Z,27.80
2023-05-25T21:00:30.646Z,28.10
2023-05-25T21:02:59.151Z,28.60
2023-05-25T21:05:27.584Z,29.20
2023-05-25T21:07:56.032Z,30.10
2023-05-25T21:10:24.417Z,30.50
2023-05-25T21:12:52.788Z,31.30
2023-05-25T21:15:21.190Z,32.00
2023-05-25T21:17:49.584Z,32.80
2023-05-25T21:20:18.122Z,33.40
2023-05-25T21:22:46.853Z,34.10
2023-05-25T21:25:15.204Z,34.90
2023-05-25T21:27:43.577Z,35.50
2023-05-25T21:30:12.385Z,35.80
2023-05-25T21:32:41.368Z,36.50
2023-05-25T21:35:09.890Z,37.00
2023-05-25T21:37:38.257Z,37.30
2023-05-25T21:40:07.789Z,37.80
2023-05-25T21:42:36.255Z,37.60
2023-05-25T21:45:05.228Z,37.20
2023-05-25T21:47:33.785Z,37.30
2023-05-25T21:50:02.235Z,36.90
2023-05-25T21:52:30.595Z,36.40
2023-05-25T21:54:59.033Z,35.30
2023-05-25T21:57:27.436Z,34.70
2023-05-25T21:59:55.887Z,33.80
2023-05-25T22:02:24.504Z,32.90
2023-05-25T22:04:52.959Z,32.20
2023-05-25T22:07:21.332Z,31.70
2023-05-25T22:09:49.659Z,30.50
2023-05-25T22:12:18.092Z,30.10
2023-05-25T22:14:46.466Z,29.60
2023-05-25T22:17:16.062Z,29.20
2023-05-25T22:19:47.111Z,28.70
2023-05-25T22:22:20.678Z,28.30
2023-05-25T22:24:49.112Z,27.90
2023-05-25T22:27:17.485Z,27.70
2023-05-25T22:29:45.831Z,27.50
2023-05-25T22:32:14.348Z,27.30
2023-05-25T22:34:42.670Z,27.00
2023-05-25T22:37:12.328Z,26.90
2023-05-25T22:39:40.938Z,26.90
2023-05-25T22:42:09.346Z,26.70
2023-05-25T22:44:37.696Z,26.60
2023-05-25T22:47:07.791Z,26.50
2023-05-25T22:49:43.056Z,26.50
2023-05-25T22:52:12.949Z,26.40
2023-05-25T22:54:41.417Z,26.40
2023-05-25T22:57:10.830Z,26.30
2023-05-25T22:59:39.214Z,26.30
2023-05-25T23:02:08.020Z,26.30
2023-05-25T23:04:41.007Z,26.30
2023-05-25T23:07:09.405Z,26.20
2023-05-25T23:09:37.729Z,26.20
2023-05-25T23:12:07.069Z,26.20
2023-05-25T23:14:36.555Z,26.20
2023-05-25T23:17:05.016Z,26.20
2023-05-25T23:19:33.414Z,26.20
2023-05-25T23:22:01.791Z,26.20
2023-05-25T23:24:30.126Z,26.20
2023-05-25T23:26:58.468Z,26.30
2023-05-25T23:29:26.796Z,26.20
2023-05-25T23:31:55.466Z,26.20
2023-05-25T23:34:24.160Z,26.30
2023-05-25T23:36:54.705Z,26.30
2023-05-25T23:39:23.098Z,26.20
2023-05-25T23:41:51.587Z,26.20
2023-05-25T23:44:19.932Z,26.20
2023-05-25T23:46:48.408Z,26.10
2023-05-25T23:49:17.038Z,26.00
2023-05-25T23:51:45.460Z,26.00
2023-05-25T23:54:13.819Z,26.10
2023-05-25T23:56:42.154Z,26.10
2023-05-25T23:59:10.485Z,26.00
